createdAt,value
2023-03-11T00:02:17.056Z,99.90
2023-03-11T00:04:48.259Z,99.90
2023-03-11T00:07:19.437Z,99.90
2023-03-11T00:09:50.608Z,99.90
2023-03-11T00:12:21.583Z,99.90
2023-03-11T00:14:52.316Z,99.90
2023-03-11T00:17:23.388Z,99.90
2023-03-11T00:19:54.139Z,99.90
2023-03-11T00:22:25.343Z,99.90
2023-03-11T00:24:56.334Z,99.90
2023-03-11T00:27:30.843Z,99.90
2023-03-11T00:30:01.856Z,99.90
2023-03-11T00:32:32.703Z,99.90
2023-03-11T00:35:05.497Z,99.90
2023-03-11T00:37:36.436Z,99.90
2023-03-11T00:40:12.211Z,99.90
2023-03-11T00:42:43.395Z,99.90
2023-03-11T00:45:15.503Z,99.90
2023-03-11T00:47:46.960Z,99.90
2023-03-11T00:50:26.525Z,99.90
2023-03-11T00:52:58.354Z,99.90
2023-03-11T00:55:34.780Z,99.90
2023-03-11T00:58:10.178Z,99.90
2023-03-11T01:00:58.103Z,99.90
2023-03-11T01:03:29.549Z,99.90
2023-03-11T01:06:00.938Z,99.90
2023-03-11T01:08:36.067Z,99.90
2023-03-11T01:11:08.686Z,99.90
2023-03-11T01:13:41.617Z,99.90
2023-03-11T01:16:12.894Z,99.90
2023-03-11T01:18:45.182Z,99.90
2023-03-11T01:21:16.730Z,99.90
2023-03-11T01:23:48.031Z,99.90
2023-03-11T01:26:19.556Z,99.90
2023-03-11T01:28:50.817Z,99.90
2023-03-11T01:31:22.142Z,99.90
2023-03-11T01:33:53.464Z,99.90
2023-03-11T01:36:25.079Z,99.90
2023-03-11T01:38:56.624Z,99.90
2023-03-11T01:41:33.519Z,99.90
2023-03-11T01:44:13.525Z,99.90
2023-03-11T01:46:55.960Z,99.90
2023-03-11T01:49:31.315Z,99.90
2023-03-11T01:52:09.465Z,99.90
2023-03-11T01:54:51.963Z,99.90
2023-03-11T01:57:24.209Z,99.90
2023-03-11T02:00:00.733Z,99.90
2023-03-11T02:02:54.456Z,99.90
2023-03-11T02:05:27.491Z,99.90
2023-03-11T02:08:00.219Z,99.90
2023-03-11T02:10:35.273Z,99.90
2023-03-11T02:13:11.106Z,99.90
2023-03-11T02:15:45.996Z,99.90
2023-03-11T02:18:21.782Z,99.90
2023-03-11T02:21:02.296Z,99.90
2023-03-11T02:23:57.735Z,99.90
2023-03-11T02:26:59.075Z,99.90
2023-03-11T02:32:19.340Z,99.90
2023-03-11T02:34:50.796Z,99.90
2023-03-11T02:37:22.022Z,99.90
2023-03-11T02:40:25.626Z,99.90
2023-03-11T02:43:20.554Z,99.90
2023-03-11T02:45:52.754Z,99.90
2023-03-11T02:48:25.555Z,99.90
2023-03-11T02:50:58.058Z,99.90
2023-03-11T02:53:32.831Z,99.90
2023-03-11T02:56:04.271Z,99.90
2023-03-11T02:58:37.100Z,99.90
2023-03-11T03:01:08.450Z,99.90
2023-03-11T03:03:39.821Z,99.90
2023-03-11T03:06:21.390Z,99.90
2023-03-11T03:08:56.868Z,99.90
2023-03-11T03:11:35.211Z,99.90
2023-03-11T03:14:28.933Z,99.90
2023-03-11T03:17:00.852Z,99.90
2023-03-11T03:19:32.265Z,99.90
2023-03-11T03:22:03.930Z,99.90
2023-03-11T03:24:36.560Z,99.90
2023-03-11T03:27:08.197Z,99.90
2023-03-11T03:29:40.117Z,99.90
2023-03-11T03:32:11.265Z,99.90
2023-03-11T03:34:42.436Z,99.90
2023-03-11T03:39:57.987Z,99.90
2023-03-11T03:42:36.785Z,99.90
2023-03-11T03:45:11.819Z,99.90
2023-03-11T03:47:43.117Z,99.90
2023-03-11T03:50:15.833Z,99.90
2023-03-11T03:52:50.222Z,99.90
2023-03-11T03:55:22.318Z,99.90
2023-03-11T03:57:54.102Z,99.90
2023-03-11T04:00:29.032Z,99.90
2023-03-11T04:03:05.075Z,99.90
2023-03-11T04:05:47.906Z,99.90
2023-03-11T04:08:20.772Z,99.90
2023-03-11T04:11:01.112Z,99.90
2023-03-11T04:13:34.359Z,99.90
2023-03-11T04:16:07.815Z,99.90
2023-03-11T04:18:39.178Z,99.90
2023-03-11T04:21:14.055Z,99.90
2023-03-11T04:23:47.477Z,99.90
2023-03-11T04:26:20.856Z,99.90
2023-03-11T04:28:52.499Z,99.90
2023-03-11T04:31:25.408Z,99.90
2023-03-11T04:33:57.080Z,99.90
2023-03-11T04:36:31.531Z,99.90
2023-03-11T04:39:04.260Z,99.90
2023-03-11T04:41:43.088Z,99.90
2023-03-11T04:44:18.884Z,99.50
2023-03-11T04:46:50.308Z,99.90
2023-03-11T04:49:22.039Z,99.90
2023-03-11T04:51:56.042Z,99.70
2023-03-11T04:54:28.005Z,99.50
2023-03-11T04:57:20.343Z,99.70
2023-03-11T04:59:52.392Z,99.40
2023-03-11T05:02:44.805Z,99.00
2023-03-11T05:05:18.347Z,99.90
2023-03-11T05:08:12.890Z,99.10
2023-03-11T05:10:47.237Z,99.30
2023-03-11T05:13:38.596Z,99.20
2023-03-11T05:16:10.358Z,99.80
2023-03-11T05:18:42.404Z,98.40
2023-03-11T05:21:18.026Z,99.60
2023-03-11T05:23:49.625Z,98.60
2023-03-11T05:26:21.095Z,98.30
2023-03-11T05:28:55.089Z,98.00
2023-03-11T05:31:30.142Z,98.60
2023-03-11T05:34:01.931Z,99.20
2023-03-11T05:36:34.426Z,98.40
2023-03-11T05:39:05.842Z,99.20
2023-03-11T05:41:40.000Z,98.70
2023-03-11T05:44:13.579Z,97.90
2023-03-11T05:46:45.476Z,97.60
2023-03-11T05:49:18.989Z,97.50
2023-03-11T05:51:58.365Z,97.70
2023-03-11T05:54:31.934Z,97.70
2023-03-11T05:57:03.716Z,98.40
2023-03-11T05:59:40.452Z,98.80
2023-03-11T06:02:11.801Z,98.30
2023-03-11T06:04:44.253Z,98.50
2023-03-11T06:07:38.807Z,98.80
2023-03-11T06:10:13.753Z,99.10
2023-03-11T06:12:46.788Z,98.90
2023-03-11T06:15:30.408Z,98.40
2023-03-11T06:18:04.582Z,98.90
2023-03-11T06:20:36.374Z,99.10
2023-03-11T06:23:07.821Z,98.80
2023-03-11T06:25:39.509Z,98.80
2023-03-11T06:28:11.409Z,99.00
2023-03-11T06:30:44.330Z,99.60
2023-03-11T06:33:21.096Z,99.60
2023-03-11T06:36:03.122Z,99.60
2023-03-11T06:38:37.440Z,99.80
2023-03-11T06:41:09.616Z,99.70
2023-03-11T06:43:41.763Z,99.90
2023-03-11T06:46:26.136Z,99.90
2023-03-11T06:49:20.705Z,99.90
2023-03-11T06:51:51.919Z,99.90
2023-03-11T06:54:24.424Z,99.90
2023-03-11T06:56:56.559Z,99.90
2023-03-11T06:59:29.842Z,99.90
2023-03-11T07:02:02.826Z,99.90
2023-03-11T07:04:34.853Z,99.80
2023-03-11T07:07:06.168Z,99.90
2023-03-11T07:09:37.620Z,99.40
2023-03-11T07:12:11.312Z,99.00
2023-03-11T07:14:42.587Z,98.90
2023-03-11T07:17:21.306Z,99.00
2023-03-11T07:19:55.527Z,98.30
2023-03-11T07:22:30.318Z,97.90
2023-03-11T07:25:04.942Z,97.30
2023-03-11T07:27:36.969Z,97.40
2023-03-11T07:30:08.795Z,96.90
2023-03-11T07:32:40.276Z,96.60
2023-03-11T07:35:13.082Z,96.60
2023-03-11T07:37:45.513Z,96.70
2023-03-11T07:40:16.947Z,97.70
2023-03-11T07:42:47.938Z,96.80
2023-03-11T07:45:20.133Z,96.70
2023-03-11T07:47:51.470Z,96.10
2023-03-11T07:50:25.576Z,95.80
2023-03-11T07:53:16.332Z,96.00
2023-03-11T07:58:37.456Z,95.90
2023-03-11T08:01:26.697Z,95.20
2023-03-11T08:04:18.870Z,95.20
2023-03-11T08:06:50.525Z,95.50
2023-03-11T08:09:22.717Z,95.20
2023-03-11T08:11:53.895Z,95.40
2023-03-11T08:14:26.418Z,95.70
2023-03-11T08:16:59.733Z,95.90
2023-03-11T08:19:31.047Z,96.10
2023-03-11T08:22:05.946Z,96.50
2023-03-11T08:24:37.399Z,96.50
2023-03-11T08:27:16.233Z,96.50
2023-03-11T08:29:50.526Z,96.80
2023-03-11T08:32:22.223Z,97.10
2023-03-11T08:34:53.505Z,96.80
2023-03-11T08:37:27.149Z,96.70
2023-03-11T08:40:17.908Z,96.90
2023-03-11T08:42:55.926Z,97.10
2023-03-11T08:45:31.110Z,97.20
2023-03-11T08:48:04.203Z,98.00
2023-03-11T08:50:47.382Z,97.40
2023-03-11T08:53:36.843Z,97.70
2023-03-11T08:56:09.778Z,97.60
2023-03-11T08:58:41.033Z,97.20
2023-03-11T09:01:16.941Z,97.30
2023-03-11T09:03:48.435Z,97.40
2023-03-11T09:06:20.166Z,97.00
2023-03-11T09:09:02.847Z,97.10
2023-03-11T09:11:35.054Z,96.90
2023-03-11T09:14:07.247Z,97.00
2023-03-11T09:16:38.576Z,97.30
2023-03-11T09:19:09.987Z,97.20
2023-03-11T09:21:43.243Z,96.90
2023-03-11T09:24:15.704Z,96.90
2023-03-11T09:26:46.885Z,97.20
2023-03-11T09:29:23.684Z,97.10
2023-03-11T09:31:55.387Z,97.10
2023-03-11T09:34:27.919Z,97.20
2023-03-11T09:36:59.131Z,97.40
2023-03-11T09:39:30.302Z,97.80
2023-03-11T09:42:29.812Z,97.70
2023-03-11T09:45:32.368Z,97.90
2023-03-11T09:48:29.478Z,98.10
2023-03-11T09:51:10.813Z,99.50
2023-03-11T09:53:49.123Z,99.80
2023-03-11T09:56:24.047Z,99.70
2023-03-11T09:58:58.460Z,99.90
2023-03-11T10:01:38.134Z,99.90
2023-03-11T10:04:47.573Z,99.90
2023-03-11T10:07:24.313Z,99.90
2023-03-11T10:09:58.544Z,99.90
2023-03-11T10:12:45.020Z,99.90
2023-03-11T10:15:25.418Z,99.90
2023-03-11T10:18:36.439Z,99.90
2023-03-11T10:21:54.396Z,99.90
2023-03-11T10:24:59.091Z,99.90
2023-03-11T10:27:44.349Z,99.90
2023-03-11T10:30:39.675Z,99.90
2023-03-11T10:33:38.692Z,99.90
2023-03-11T10:36:29.764Z,99.90
2023-03-11T10:39:04.005Z,99.90
2023-03-11T10:42:11.792Z,99.90
2023-03-11T10:44:45.057Z,99.90
2023-03-11T10:47:27.567Z,99.90
2023-03-11T10:50:21.289Z,99.90
2023-03-11T10:56:39.382Z,99.90
2023-03-11T10:59:33.607Z,99.90
2023-03-11T11:02:30.489Z,99.90
2023-03-11T11:05:28.795Z,99.90
2023-03-11T11:08:18.055Z,99.90
2023-03-11T11:11:00.096Z,99.90
2023-03-11T11:13:34.928Z,99.90
2023-03-11T11:16:19.064Z,99.90
2023-03-11T11:19:09.807Z,99.90
2023-03-11T11:21:51.303Z,99.90
2023-03-11T11:24:30.822Z,99.90
2023-03-11T11:27:24.180Z,99.90
2023-03-11T11:30:19.367Z,99.90
2023-03-11T11:32:53.284Z,99.90
2023-03-11T11:35:26.918Z,99.90
2023-03-11T11:40:51.308Z,99.90
2023-03-11T11:43:53.376Z,99.90
2023-03-11T11:46:36.986Z,99.90
2023-03-11T11:49:28.451Z,99.90
2023-03-11T11:52:21.675Z,99.90
2023-03-11T11:55:35.902Z,99.90
2023-03-11T11:58:13.782Z,99.90
2023-03-11T12:01:10.014Z,99.90
2023-03-11T12:04:02.478Z,99.90
2023-03-11T12:06:57.464Z,99.90
2023-03-11T12:10:21.338Z,99.90
2023-03-11T12:13:14.740Z,99.90
2023-03-11T12:16:05.955Z,99.90
2023-03-11T12:18:54.770Z,99.90
2023-03-11T12:21:44.039Z,99.90
2023-03-11T12:24:38.761Z,99.90
2023-03-11T12:27:24.736Z,99.90
2023-03-11T12:30:01.743Z,99.90
2023-03-11T12:33:00.710Z,99.90
2023-03-11T12:35:36.373Z,99.90
2023-03-11T12:41:29.232Z,99.90
2023-03-11T12:44:23.099Z,99.90
2023-03-11T12:47:20.290Z,99.90
2023-03-11T12:49:56.601Z,99.90
2023-03-11T12:52:32.374Z,99.90
2023-03-11T12:55:04.798Z,99.90
2023-03-11T12:58:23.831Z,99.90
2023-03-11T13:01:21.586Z,99.90
2023-03-11T13:04:24.368Z,99.90
2023-03-11T13:07:02.687Z,99.90
2023-03-11T13:09:34.198Z,99.90
2023-03-11T13:12:26.307Z,99.90
2023-03-11T13:15:35.860Z,99.90
2023-03-11T13:18:16.231Z,99.90
2023-03-11T13:20:53.432Z,99.90
2023-03-11T13:23:26.582Z,99.90
2023-03-11T13:25:58.805Z,99.90
2023-03-11T13:29:10.886Z,99.90
2023-03-11T13:32:01.860Z,99.90
2023-03-11T13:35:08.969Z,99.90
2023-03-11T13:38:00.938Z,99.90
2023-03-11T13:40:55.583Z,99.90
2023-03-11T13:43:29.850Z,99.90
2023-03-11T13:46:08.169Z,99.90
2023-03-11T13:48:47.449Z,99.90
2023-03-11T13:51:30.133Z,99.90
2023-03-11T13:54:21.545Z,99.90
2023-03-11T13:57:01.378Z,99.90
2023-03-11T13:59:38.701Z,99.90
2023-03-11T14:02:20.459Z,99.90
2023-03-11T14:04:59.768Z,99.90
2023-03-11T14:07:51.890Z,99.90
2023-03-11T14:11:06.310Z,99.90
2023-03-11T14:13:43.019Z,99.90
2023-03-11T14:16:49.088Z,99.90
2023-03-11T14:19:23.912Z,99.90
2023-03-11T14:21:56.136Z,99.90
2023-03-11T14:24:38.109Z,99.90
2023-03-11T14:27:12.306Z,99.90
2023-03-11T14:29:47.062Z,99.90
2023-03-11T14:32:39.250Z,99.90
2023-03-11T14:35:24.214Z,99.90
2023-03-11T14:37:59.927Z,99.90
2023-03-11T14:40:56.440Z,99.90
2023-03-11T14:43:29.293Z,99.90
2023-03-11T14:46:01.767Z,99.90
2023-03-11T14:48:44.896Z,99.90
2023-03-11T14:51:38.181Z,99.90
2023-03-11T14:54:20.870Z,99.90
2023-03-11T14:56:58.291Z,99.90
2023-03-11T14:59:34.150Z,99.90
2023-03-11T15:02:41.794Z,99.90
2023-03-11T15:05:28.367Z,99.90
2023-03-11T15:08:05.507Z,99.90
2023-03-11T15:13:27.981Z,99.90
2023-03-11T15:16:07.198Z,99.90
2023-03-11T15:18:41.900Z,99.90
2023-03-11T15:21:21.626Z,99.90
2023-03-11T15:24:02.275Z,99.90
2023-03-11T15:26:42.483Z,99.90
2023-03-11T15:29:19.250Z,99.90
2023-03-11T15:31:51.365Z,99.90
2023-03-11T15:34:40.292Z,99.90
2023-03-11T15:37:23.537Z,99.90
2023-03-11T15:39:56.491Z,99.90
2023-03-11T15:42:30.805Z,99.90
2023-03-11T15:45:06.222Z,99.90
2023-03-11T15:47:37.981Z,99.90
2023-03-11T15:53:07.248Z,99.90
2023-03-11T15:55:41.643Z,99.90
2023-03-11T15:58:16.162Z,99.90
2023-03-11T16:00:53.337Z,99.90
2023-03-11T16:03:35.934Z,99.90
2023-03-11T16:06:08.879Z,99.90
2023-03-11T16:08:39.914Z,99.90
2023-03-11T16:11:17.650Z,99.90
2023-03-11T16:14:13.179Z,99.90
2023-03-11T16:16:44.619Z,99.90
2023-03-11T16:19:17.360Z,99.90
2023-03-11T16:21:51.973Z,99.90
2023-03-11T16:24:26.561Z,99.90
2023-03-11T16:26:58.555Z,99.90
2023-03-11T16:29:33.982Z,99.90
2023-03-11T16:32:06.179Z,99.90
2023-03-11T16:34:37.610Z,99.90
2023-03-11T16:37:12.805Z,99.90
2023-03-11T16:39:44.479Z,99.90
2023-03-11T16:42:15.888Z,99.90
2023-03-11T16:44:48.240Z,99.90
2023-03-11T16:47:19.749Z,99.90
2023-03-11T16:49:56.009Z,99.90
2023-03-11T16:52:30.103Z,99.90
2023-03-11T16:55:01.523Z,99.90
2023-03-11T16:57:33.143Z,99.90
2023-03-11T17:00:10.567Z,99.90
2023-03-11T17:02:42.003Z,99.90
2023-03-11T17:05:13.394Z,99.90
2023-03-11T17:07:44.806Z,99.90
2023-03-11T17:10:16.306Z,99.90
2023-03-11T17:12:49.561Z,99.90
2023-03-11T17:15:21.068Z,99.90
2023-03-11T17:17:53.143Z,99.90
2023-03-11T17:20:26.172Z,99.90
2023-03-11T17:22:57.600Z,99.90
2023-03-11T17:25:28.895Z,99.90
2023-03-11T17:28:00.635Z,99.90
2023-03-11T17:30:37.280Z,99.90
2023-03-11T17:33:08.847Z,99.90
2023-03-11T17:35:40.303Z,99.90
2023-03-11T17:38:11.753Z,99.90
2023-03-11T17:40:42.806Z,99.90
2023-03-11T17:43:14.650Z,99.90
2023-03-11T17:45:45.952Z,99.90
2023-03-11T17:48:18.333Z,99.90
2023-03-11T17:50:49.857Z,99.90
2023-03-11T17:53:21.082Z,99.90
2023-03-11T17:55:52.039Z,99.90
2023-03-11T17:58:23.047Z,99.90
2023-03-11T18:00:55.250Z,99.90
2023-03-11T18:03:26.802Z,99.90
2023-03-11T18:06:02.744Z,99.90
2023-03-11T18:08:35.746Z,99.90
2023-03-11T18:11:09.553Z,99.90
2023-03-11T18:13:41.092Z,99.90
2023-03-11T18:16:15.691Z,99.90
2023-03-11T18:18:48.520Z,99.90
2023-03-11T18:21:22.650Z,99.90
2023-03-11T18:23:58.362Z,99.90
2023-03-11T18:26:31.820Z,99.90
2023-03-11T18:29:03.425Z,99.90
2023-03-11T18:31:34.757Z,99.90
2023-03-11T18:34:08.983Z,99.90
2023-03-11T18:36:43.646Z,99.90
2023-03-11T18:39:15.460Z,99.90
2023-03-11T18:41:46.701Z,99.90
2023-03-11T18:44:18.354Z,99.90
2023-03-11T18:46:49.184Z,99.90
2023-03-11T18:49:19.944Z,99.90
2023-03-11T18:51:50.771Z,99.90
2023-03-11T18:54:21.804Z,99.90
2023-03-11T18:56:52.991Z,99.90
2023-03-11T18:59:25.140Z,99.90
2023-03-11T19:01:56.295Z,99.90
2023-03-11T19:04:29.328Z,99.90
2023-03-11T19:07:00.536Z,99.90
2023-03-11T19:09:31.621Z,99.90
2023-03-11T19:12:03.240Z,99.90
2023-03-11T19:14:34.347Z,99.90
2023-03-11T19:17:05.403Z,99.90
2023-03-11T19:19:36.613Z,99.90
2023-03-11T19:22:08.178Z,99.90
2023-03-11T19:24:39.169Z,99.90
2023-03-11T19:27:11.025Z,99.90
2023-03-11T19:29:41.855Z,99.90
2023-03-11T19:32:12.988Z,99.90
2023-03-11T19:34:43.740Z,99.90
2023-03-11T19:37:14.429Z,99.90
2023-03-11T19:39:45.496Z,99.90
2023-03-11T19:42:16.564Z,99.90
2023-03-11T19:45:07.473Z,99.90
2023-03-11T19:47:39.100Z,99.90
2023-03-11T19:50:10.797Z,99.90
2023-03-11T19:52:41.764Z,99.90
2023-03-11T19:55:13.154Z,99.90
2023-03-11T19:57:44.111Z,99.90
2023-03-11T20:00:15.761Z,99.90
2023-03-11T20:02:46.919Z,99.90
2023-03-11T20:05:18.192Z,99.90
2023-03-11T20:07:49.326Z,99.90
2023-03-11T20:10:21.101Z,99.90
2023-03-11T20:13:01.762Z,99.90
2023-03-11T20:15:33.617Z,99.90
2023-03-11T20:18:04.972Z,99.90
2023-03-11T20:20:40.064Z,99.90
2023-03-11T20:23:14.119Z,99.90
2023-03-11T20:25:45.354Z,99.90
2023-03-11T20:28:16.475Z,99.90
2023-03-11T20:30:47.429Z,99.90
2023-03-11T20:33:18.530Z,99.90
2023-03-11T20:35:49.963Z,99.90
2023-03-11T20:38:20.778Z,99.90
2023-03-11T20:40:58.641Z,99.90
2023-03-11T20:43:29.918Z,99.90
2023-03-11T20:46:01.232Z,99.90
2023-03-11T20:48:32.406Z,99.90
2023-03-11T20:51:09.145Z,99.90
2023-03-11T20:53:40.859Z,99.90
2023-03-11T20:56:16.156Z,99.90
2023-03-11T20:58:50.353Z,99.90
2023-03-11T21:01:25.168Z,99.90
2023-03-11T21:04:01.552Z,99.90
2023-03-11T21:06:38.407Z,99.90
2023-03-11T21:09:14.279Z,99.90
2023-03-11T21:11:45.469Z,99.90
2023-03-11T21:14:20.401Z,99.90
2023-03-11T21:16:51.592Z,99.90
2023-03-11T21:19:23.537Z,99.90
2023-03-11T21:21:54.617Z,99.90
2023-03-11T21:24:25.964Z,99.90
2023-03-11T21:26:57.032Z,99.90
2023-03-11T21:29:27.997Z,99.90
2023-03-11T21:31:59.264Z,99.90
2023-03-11T21:34:30.148Z,99.90
2023-03-11T21:37:01.276Z,99.90
2023-03-11T21:39:32.472Z,99.90
2023-03-11T21:42:04.189Z,99.90
2023-03-11T21:44:34.928Z,99.90
2023-03-11T21:47:09.176Z,99.90
2023-03-11T21:50:01.758Z,99.90
2023-03-11T21:52:33.027Z,99.90
2023-03-11T21:55:04.077Z,99.90
2023-03-11T21:57:35.206Z,99.90
2023-03-11T22:00:09.833Z,99.90
2023-03-11T22:02:41.150Z,99.90
2023-03-11T22:05:13.382Z,99.90
2023-03-11T22:07:44.493Z,99.90
2023-03-11T22:10:15.544Z,99.90
2023-03-11T22:12:46.598Z,99.90
2023-03-11T22:15:19.933Z,99.90
2023-03-11T22:17:50.797Z,99.90
2023-03-11T22:20:21.915Z,99.90
2023-03-11T22:22:52.859Z,99.90
2023-03-11T22:25:23.918Z,99.90
2023-03-11T22:27:54.900Z,99.90
2023-03-11T22:30:31.790Z,99.90
2023-03-11T22:33:09.237Z,99.90
2023-03-11T22:35:39.925Z,99.90
2023-03-11T22:38:10.702Z,99.90
2023-03-11T22:40:41.631Z,99.90
2023-03-11T22:43:12.521Z,99.90
2023-03-11T22:45:43.578Z,99.90
2023-03-11T22:48:14.655Z,99.90
2023-03-11T22:50:46.548Z,99.90
2023-03-11T22:53:17.685Z,99.90
2023-03-11T22:55:48.957Z,99.90
2023-03-11T22:58:19.858Z,99.90
2023-03-11T23:01:03.891Z,99.90
2023-03-11T23:03:36.441Z,99.90
2023-03-11T23:06:18.164Z,99.90
2023-03-11T23:08:49.440Z,99.90
2023-03-11T23:11:24.934Z,99.90
2023-03-11T23:13:56.038Z,99.90
2023-03-11T23:16:27.732Z,99.90
2023-03-11T23:18:59.196Z,99.90
2023-03-11T23:21:34.859Z,99.90
2023-03-11T23:24:08.701Z,99.90
2023-03-11T23:26:40.391Z,99.90
2023-03-11T23:29:11.580Z,99.90
2023-03-11T23:31:42.681Z,99.90
2023-03-11T23:34:13.872Z,99.90
2023-03-11T23:36:44.645Z,99.90
2023-03-11T23:39:15.752Z,99.90
2023-03-11T23:42:18.657Z,99.90
2023-03-11T23:44:55.992Z,99.90
2023-03-11T23:47:28.211Z,99.90
2023-03-11T23:49:59.039Z,99.90
2023-03-11T23:52:30.291Z,99.90
2023-03-11T23:55:01.379Z,99.90
2023-03-11T23:57:32.486Z,99.90
